createdAt,value
2022-11-01T00:02:20.008Z,76.64
2022-11-01T00:04:46.638Z,76.43
2022-11-01T00:07:13.191Z,76.78
2022-11-01T00:09:39.762Z,76.82
2022-11-01T00:12:06.614Z,75.77
2022-11-01T00:14:33.174Z,76.23
2022-11-01T00:16:59.810Z,76.70
2022-11-01T00:19:26.386Z,77.21
2022-11-01T00:21:52.941Z,76.70
2022-11-01T00:24:21.991Z,75.96
2022-11-01T00:29:22.563Z,76.29
2022-11-01T00:31:50.022Z,78.11
2022-11-01T00:34:17.173Z,79.12
2022-11-01T00:36:44.122Z,76.49
2022-11-01T00:39:14.486Z,76.82
2022-11-01T00:41:41.186Z,76.35
2022-11-01T00:44:07.707Z,78.52
2022-11-01T00:46:34.637Z,78.04
2022-11-01T00:49:02.280Z,76.39
2022-11-01T00:51:28.859Z,76.62
2022-11-01T00:53:56.025Z,76.58
2022-11-01T00:56:24.493Z,76.07
2022-11-01T00:58:51.099Z,76.72
2022-11-01T01:01:21.923Z,76.94
2022-11-01T01:03:48.566Z,77.47
2022-11-01T01:06:15.144Z,77.46
2022-11-01T01:08:41.792Z,78.02
2022-11-01T01:11:08.334Z,78.35
2022-11-01T01:13:34.862Z,78.29
2022-11-01T01:16:01.488Z,79.29
2022-11-01T01:18:28.469Z,78.22
2022-11-01T01:21:06.627Z,77.63
2022-11-01T01:23:33.332Z,79.00
2022-11-01T01:25:59.929Z,80.56
2022-11-01T01:28:30.653Z,80.82
2022-11-01T01:30:57.194Z,81.14
2022-11-01T01:33:23.727Z,79.26
2022-11-01T01:35:50.612Z,79.77
2022-11-01T01:38:17.285Z,78.74
2022-11-01T01:40:47.815Z,78.56
2022-11-01T01:43:22.969Z,78.87
2022-11-01T01:45:49.533Z,79.88
2022-11-01T01:48:22.529Z,80.35
2022-11-01T01:50:57.255Z,80.17
2022-11-01T01:53:28.761Z,78.45
2022-11-01T01:56:12.759Z,78.20
2022-11-01T01:59:01.604Z,77.58
2022-11-01T02:01:32.187Z,77.65
2022-11-01T02:03:59.070Z,78.53
2022-11-01T02:06:26.551Z,78.39
2022-11-01T02:08:56.940Z,78.35
2022-11-01T02:11:23.659Z,77.81
2022-11-01T02:13:50.601Z,78.77
2022-11-01T02:16:32.571Z,79.76
2022-11-01T02:19:25.025Z,78.40
2022-11-01T02:21:56.578Z,78.83
2022-11-01T02:24:46.394Z,78.34
2022-11-01T02:27:51.705Z,78.07
2022-11-01T02:30:21.470Z,80.19
2022-11-01T02:32:54.695Z,79.05
2022-11-01T02:35:43.466Z,79.43
2022-11-01T02:38:28.263Z,78.09
2022-11-01T02:41:00.050Z,77.91
2022-11-01T02:43:48.468Z,78.92
2022-11-01T02:46:36.505Z,80.38
2022-11-01T02:49:04.304Z,79.02
2022-11-01T02:51:33.011Z,81.45
2022-11-01T02:54:07.987Z,78.72
2022-11-01T02:56:35.677Z,78.58
2022-11-01T02:59:02.528Z,79.03
2022-11-01T03:01:34.510Z,80.42
2022-11-01T03:04:02.278Z,79.04
2022-11-01T03:06:39.908Z,78.28
2022-11-01T03:09:11.430Z,78.87
2022-11-01T03:12:01.832Z,79.81
2022-11-01T03:14:54.664Z,79.33
2022-11-01T03:17:26.426Z,80.29
2022-11-01T03:19:52.939Z,78.76
2022-11-01T03:22:23.579Z,78.91
2022-11-01T03:25:42.954Z,80.56
2022-11-01T03:28:17.414Z,82.03
2022-11-01T03:30:51.951Z,81.26
2022-11-01T03:33:20.501Z,81.17
2022-11-01T03:35:51.811Z,80.21
2022-11-01T03:38:22.969Z,79.12
2022-11-01T03:41:03.490Z,78.60
2022-11-01T03:43:32.581Z,79.22
2022-11-01T03:45:59.168Z,79.11
2022-11-01T03:48:25.940Z,80.68
2022-11-01T03:50:56.214Z,79.72
2022-11-01T03:53:23.311Z,78.37
2022-11-01T03:55:50.185Z,78.44
2022-11-01T03:58:16.995Z,79.15
2022-11-01T04:00:45.084Z,80.00
2022-11-01T04:03:12.564Z,81.07
2022-11-01T04:05:40.843Z,79.03
2022-11-01T04:08:08.769Z,79.89
2022-11-01T04:10:35.442Z,80.95
2022-11-01T04:13:02.811Z,82.78
2022-11-01T04:15:48.396Z,82.04
2022-11-01T04:18:37.544Z,81.24
2022-11-01T04:21:06.741Z,80.48
2022-11-01T04:23:34.328Z,79.72
2022-11-01T04:26:01.935Z,79.17
2022-11-01T04:28:28.811Z,78.55
2022-11-01T04:30:55.706Z,78.67
2022-11-01T04:33:22.304Z,77.75
2022-11-01T04:35:49.086Z,77.58
2022-11-01T04:38:16.174Z,77.72
2022-11-01T04:40:43.466Z,76.83
2022-11-01T04:43:10.846Z,77.44
2022-11-01T04:45:40.878Z,77.33
2022-11-01T04:48:16.920Z,78.02
2022-11-01T04:50:45.531Z,79.60
2022-11-01T04:53:15.178Z,77.67
2022-11-01T04:55:41.742Z,77.79
2022-11-01T04:58:09.835Z,77.48
2022-11-01T05:00:37.447Z,77.70
2022-11-01T05:03:06.938Z,78.08
2022-11-01T05:05:36.956Z,76.92
2022-11-01T05:08:11.666Z,77.14
2022-11-01T05:10:41.556Z,78.59
2022-11-01T05:13:09.474Z,78.61
2022-11-01T05:15:40.208Z,79.20
2022-11-01T05:18:14.628Z,78.82
2022-11-01T05:20:41.170Z,76.72
2022-11-01T05:23:08.986Z,76.31
2022-11-01T05:25:38.070Z,76.67
2022-11-01T05:28:08.167Z,76.85
2022-11-01T05:30:35.719Z,77.61
2022-11-01T05:33:03.625Z,77.49
2022-11-01T05:35:31.074Z,76.39
2022-11-01T05:37:58.170Z,76.59
2022-11-01T05:40:25.194Z,76.72
2022-11-01T05:42:52.196Z,76.81
2022-11-01T05:45:18.832Z,79.32
2022-11-01T05:47:45.438Z,80.18
2022-11-01T05:50:14.089Z,79.65
2022-11-01T05:52:41.132Z,81.01
2022-11-01T05:55:08.702Z,80.57
2022-11-01T05:57:35.776Z,80.17
2022-11-01T06:00:03.506Z,80.05
2022-11-01T06:02:33.945Z,78.97
2022-11-01T06:05:03.052Z,77.90
2022-11-01T06:07:30.128Z,78.04
2022-11-01T06:09:56.782Z,81.11
2022-11-01T06:12:25.120Z,80.09
2022-11-01T06:14:52.108Z,80.47
2022-11-01T06:17:18.766Z,81.06
2022-11-01T06:19:45.458Z,81.13
2022-11-01T06:22:12.029Z,80.68
2022-11-01T06:24:38.604Z,79.94
2022-11-01T06:27:09.820Z,79.23
2022-11-01T06:29:38.006Z,82.37
2022-11-01T06:32:05.222Z,82.73
2022-11-01T06:34:32.294Z,80.84
2022-11-01T06:36:59.435Z,81.60
2022-11-01T06:39:26.447Z,81.37
2022-11-01T06:41:52.992Z,81.21
2022-11-01T06:44:19.557Z,80.84
2022-11-01T06:46:46.117Z,81.74
2022-11-01T06:49:16.420Z,79.65
2022-11-01T06:54:26.201Z,79.56
2022-11-01T06:56:52.790Z,79.44
2022-11-01T06:59:19.602Z,79.77
2022-11-01T07:01:46.264Z,79.28
2022-11-01T07:04:13.147Z,79.93
2022-11-01T07:06:40.039Z,78.77
2022-11-01T07:09:06.681Z,79.97
2022-11-01T07:11:33.771Z,81.81
2022-11-01T07:14:00.331Z,80.56
2022-11-01T07:16:27.508Z,81.34
2022-11-01T07:18:54.369Z,82.52
2022-11-01T07:21:21.128Z,81.00
2022-11-01T07:26:43.212Z,79.74
2022-11-01T07:29:09.732Z,79.29
2022-11-01T07:31:38.837Z,79.07
2022-11-01T07:34:06.053Z,78.01
2022-11-01T07:36:32.882Z,78.20
2022-11-01T07:38:59.429Z,77.84
2022-11-01T07:41:30.383Z,78.22
2022-11-01T07:43:56.990Z,79.07
2022-11-01T07:46:23.773Z,80.26
2022-11-01T07:48:51.407Z,80.55
2022-11-01T07:51:18.512Z,79.21
2022-11-01T07:53:45.073Z,81.43
2022-11-01T07:56:11.688Z,80.32
2022-11-01T07:58:38.505Z,80.34
2022-11-01T08:01:05.164Z,80.13
2022-11-01T08:03:31.783Z,79.87
2022-11-01T08:05:58.336Z,78.45
2022-11-01T08:08:24.872Z,77.83
2022-11-01T08:10:51.432Z,77.02
2022-11-01T08:13:25.234Z,76.05
2022-11-01T08:15:53.248Z,75.82
2022-11-01T08:18:22.687Z,76.13
2022-11-01T08:20:49.865Z,76.80
2022-11-01T08:23:16.926Z,78.21
2022-11-01T08:25:43.744Z,76.63
2022-11-01T08:28:16.101Z,77.61
2022-11-01T08:30:44.204Z,77.70
2022-11-01T08:33:11.515Z,77.65
2022-11-01T08:35:38.223Z,78.00
2022-11-01T08:38:05.146Z,77.95
2022-11-01T08:40:33.137Z,77.39
2022-11-01T08:42:59.905Z,76.30
2022-11-01T08:45:27.690Z,75.95
2022-11-01T08:47:59.357Z,76.22
2022-11-01T08:50:27.720Z,76.37
2022-11-01T08:52:54.503Z,75.59
2022-11-01T08:55:21.806Z,75.83
2022-11-01T08:57:49.040Z,75.39
2022-11-01T09:00:16.806Z,74.39
2022-11-01T09:02:43.360Z,74.14
2022-11-01T09:05:09.924Z,75.67
2022-11-01T09:07:37.587Z,75.13
2022-11-01T09:10:05.005Z,75.75
2022-11-01T09:12:31.848Z,75.72
2022-11-01T09:14:58.438Z,75.84
2022-11-01T09:17:25.081Z,74.98
2022-11-01T09:19:51.663Z,74.74
2022-11-01T09:22:18.198Z,76.46
2022-11-01T09:24:45.213Z,75.46
2022-11-01T09:27:12.342Z,75.18
2022-11-01T09:29:38.930Z,74.70
2022-11-01T09:34:40.723Z,74.91
2022-11-01T09:37:07.265Z,75.64
2022-11-01T09:39:33.820Z,75.16
2022-11-01T09:42:04.745Z,74.44
2022-11-01T09:44:40.438Z,75.21
2022-11-01T09:47:15.295Z,74.54
2022-11-01T09:49:46.387Z,73.66
2022-11-01T09:52:20.295Z,73.83
2022-11-01T09:54:47.322Z,73.98
2022-11-01T09:57:28.782Z,73.77
2022-11-01T10:00:13.522Z,74.15
2022-11-01T10:02:48.529Z,74.91
2022-11-01T10:05:34.146Z,76.63
2022-11-01T10:08:18.874Z,74.58
2022-11-01T10:11:09.911Z,74.06
2022-11-01T10:13:48.683Z,73.92
2022-11-01T10:16:22.163Z,73.56
2022-11-01T10:19:01.065Z,72.67
2022-11-01T10:21:37.064Z,75.18
2022-11-01T10:24:08.075Z,73.73
2022-11-01T10:26:34.782Z,74.89
2022-11-01T10:29:13.040Z,74.98
2022-11-01T10:31:45.412Z,75.78
2022-11-01T10:34:30.795Z,75.01
2022-11-01T10:37:14.316Z,74.03
2022-11-01T10:39:57.933Z,74.63
2022-11-01T10:42:30.600Z,74.10
2022-11-01T10:45:23.135Z,72.97
2022-11-01T10:47:55.477Z,72.74
2022-11-01T10:50:25.704Z,73.31
2022-11-01T10:52:56.999Z,74.13
2022-11-01T10:55:38.654Z,72.88
2022-11-01T10:58:13.448Z,71.96
2022-11-01T11:00:42.359Z,71.75
2022-11-01T11:03:31.138Z,71.37
2022-11-01T11:06:04.818Z,72.19
2022-11-01T11:08:32.787Z,71.75
2022-11-01T11:11:04.180Z,71.92
2022-11-01T11:13:31.703Z,72.05
2022-11-01T11:16:06.516Z,72.81
2022-11-01T11:18:38.906Z,73.25
2022-11-01T11:21:11.746Z,72.45
2022-11-01T11:23:56.098Z,72.84
2022-11-01T11:26:22.879Z,74.40
2022-11-01T11:28:53.545Z,74.26
2022-11-01T11:31:31.542Z,73.56
2022-11-01T11:34:20.084Z,73.06
2022-11-01T11:36:53.760Z,72.35
2022-11-01T11:39:29.477Z,71.57
2022-11-01T11:42:19.153Z,72.56
2022-11-01T11:44:55.399Z,72.12
2022-11-01T11:47:29.108Z,71.66
2022-11-01T11:49:58.360Z,70.65
2022-11-01T11:52:38.554Z,70.94
2022-11-01T11:55:25.917Z,72.55
2022-11-01T11:57:54.895Z,72.01
2022-11-01T12:00:24.029Z,71.81
2022-11-01T12:02:50.957Z,73.14
2022-11-01T12:05:20.084Z,73.93
2022-11-01T12:07:49.860Z,73.15
2022-11-01T12:10:34.152Z,72.57
2022-11-01T12:13:33.517Z,72.48
2022-11-01T12:16:23.972Z,71.72
2022-11-01T12:19:27.552Z,71.45
2022-11-01T12:21:57.028Z,70.92
2022-11-01T12:24:32.543Z,72.88
2022-11-01T12:27:07.157Z,71.90
2022-11-01T12:29:39.036Z,70.45
2022-11-01T12:32:19.692Z,69.74
2022-11-01T12:34:49.074Z,69.61
2022-11-01T12:37:32.406Z,69.77
2022-11-01T12:40:21.188Z,69.63
2022-11-01T12:42:52.019Z,69.47
2022-11-01T12:45:47.237Z,68.86
2022-11-01T12:48:28.818Z,69.33
2022-11-01T12:51:11.033Z,68.69
2022-11-01T12:54:12.285Z,68.78
2022-11-01T12:56:39.937Z,68.55
2022-11-01T12:59:10.397Z,68.36
2022-11-01T13:01:54.614Z,68.45
2022-11-01T13:04:31.399Z,67.88
2022-11-01T13:07:23.107Z,67.04
2022-11-01T13:10:18.411Z,67.48
2022-11-01T13:12:50.715Z,67.99
2022-11-01T13:15:28.136Z,67.38
2022-11-01T13:18:10.094Z,67.48
2022-11-01T13:21:05.708Z,68.01
2022-11-01T13:23:37.493Z,67.22
2022-11-01T13:26:22.198Z,67.79
2022-11-01T13:29:01.028Z,68.61
2022-11-01T13:31:48.658Z,67.50
2022-11-01T13:34:40.664Z,66.84
2022-11-01T13:37:22.136Z,67.13
2022-11-01T13:40:28.037Z,66.78
2022-11-01T13:43:05.191Z,67.75
2022-11-01T13:45:43.831Z,67.07
2022-11-01T13:48:59.937Z,66.76
2022-11-01T13:51:34.434Z,66.05
2022-11-01T13:54:11.517Z,66.19
2022-11-01T13:56:54.172Z,66.09
2022-11-01T13:59:45.142Z,65.83
2022-11-01T14:02:24.032Z,66.11
2022-11-01T14:05:13.623Z,65.88
2022-11-01T14:07:45.738Z,65.72
2022-11-01T14:10:17.968Z,65.45
2022-11-01T14:12:57.600Z,65.32
2022-11-01T14:15:26.859Z,65.22
2022-11-01T14:17:55.181Z,65.42
2022-11-01T14:20:33.790Z,65.51
2022-11-01T14:23:29.055Z,65.59
2022-11-01T14:26:21.041Z,66.18
2022-11-01T14:28:58.959Z,65.68
2022-11-01T14:31:28.382Z,66.17
2022-11-01T14:33:59.953Z,66.10
2022-11-01T14:36:31.304Z,65.98
2022-11-01T14:39:08.939Z,65.62
2022-11-01T14:41:40.596Z,65.69
2022-11-01T14:44:29.849Z,65.68
2022-11-01T14:47:00.861Z,65.51
2022-11-01T14:49:40.099Z,66.13
2022-11-01T14:52:21.943Z,66.32
2022-11-01T14:55:00.570Z,65.94
2022-11-01T14:57:32.550Z,66.02
2022-11-01T14:59:59.890Z,66.34
2022-11-01T15:02:28.385Z,66.39
2022-11-01T15:05:00.058Z,66.30
2022-11-01T15:07:31.169Z,66.11
2022-11-01T15:10:04.629Z,66.16
2022-11-01T15:12:35.325Z,66.20
2022-11-01T15:15:02.873Z,66.34
2022-11-01T15:17:33.431Z,66.41
2022-11-01T15:20:04.112Z,66.61
2022-11-01T15:22:33.612Z,66.36
2022-11-01T15:25:05.803Z,66.44
2022-11-01T15:27:38.801Z,66.40
2022-11-01T15:30:06.549Z,66.41
2022-11-01T15:32:35.083Z,66.40
2022-11-01T15:35:05.956Z,66.39
2022-11-01T15:37:33.674Z,66.48
2022-11-01T15:40:01.663Z,66.30
2022-11-01T15:42:33.780Z,66.27
2022-11-01T15:45:26.655Z,66.44
2022-11-01T15:47:53.912Z,66.32
2022-11-01T15:50:20.827Z,66.42
2022-11-01T15:52:47.490Z,66.69
2022-11-01T15:55:21.246Z,67.07
2022-11-01T15:57:56.579Z,66.94
2022-11-01T16:00:27.662Z,66.66
2022-11-01T16:03:04.354Z,66.58
2022-11-01T16:05:56.928Z,66.84
2022-11-01T16:08:29.363Z,66.90
2022-11-01T16:10:56.346Z,66.93
2022-11-01T16:13:23.426Z,66.93
2022-11-01T16:16:07.866Z,66.70
2022-11-01T16:18:40.045Z,67.07
2022-11-01T16:21:18.416Z,67.20
2022-11-01T16:24:04.007Z,67.08
2022-11-01T16:26:33.496Z,66.90
2022-11-01T16:29:00.073Z,67.36
2022-11-01T16:31:29.356Z,67.75
2022-11-01T16:33:57.413Z,67.39
2022-11-01T16:36:36.438Z,67.29
2022-11-01T16:39:24.338Z,67.71
2022-11-01T16:41:52.294Z,67.72
2022-11-01T16:44:19.213Z,67.43
2022-11-01T16:46:45.942Z,67.29
2022-11-01T16:49:15.493Z,67.44
2022-11-01T16:51:45.363Z,67.66
2022-11-01T16:54:12.822Z,67.64
2022-11-01T16:56:58.687Z,67.55
2022-11-01T16:59:34.373Z,67.74
2022-11-01T17:02:11.461Z,67.40
2022-11-01T17:04:39.674Z,67.10
2022-11-01T17:07:06.774Z,67.24
2022-11-01T17:09:34.537Z,67.26
2022-11-01T17:12:01.060Z,67.23
2022-11-01T17:14:27.714Z,67.21
2022-11-01T17:16:56.290Z,67.15
2022-11-01T17:19:33.096Z,67.08
2022-11-01T17:22:21.322Z,67.13
2022-11-01T17:24:48.113Z,67.01
2022-11-01T17:27:15.690Z,67.09
2022-11-01T17:29:43.097Z,67.13
2022-11-01T17:32:11.306Z,67.16
2022-11-01T17:34:56.700Z,67.17
2022-11-01T17:37:25.754Z,67.21
2022-11-01T17:39:53.840Z,67.42
2022-11-01T17:42:20.728Z,67.09
2022-11-01T17:44:47.258Z,67.21
2022-11-01T17:47:14.658Z,67.46
2022-11-01T17:53:09.114Z,67.72
2022-11-01T17:55:36.985Z,67.75
2022-11-01T17:58:04.605Z,67.60
2022-11-01T18:00:31.764Z,67.58
2022-11-01T18:02:58.618Z,67.77
2022-11-01T18:05:34.135Z,67.84
2022-11-01T19:08:24.973Z,67.87
2022-11-01T19:10:53.448Z,68.00
2022-11-01T19:13:34.310Z,68.21
2022-11-01T19:16:05.961Z,68.13
2022-11-01T19:18:32.553Z,68.20
2022-11-01T19:21:00.639Z,68.29
2022-11-01T19:23:42.037Z,68.30
2022-11-01T19:26:19.168Z,68.55
2022-11-01T19:28:45.752Z,69.43
2022-11-01T19:31:39.910Z,69.04
2022-11-01T19:34:16.874Z,68.83
2022-11-01T19:36:44.510Z,69.05
2022-11-01T20:04:38.190Z,70.99
2022-11-01T20:18:40.372Z,71.27
2022-11-01T20:26:44.494Z,70.88
2022-11-01T20:40:19.636Z,71.06
2022-11-01T20:43:06.665Z,70.67
2022-11-01T20:45:36.938Z,70.54
2022-11-01T20:48:04.290Z,69.87
2022-11-01T20:50:30.974Z,69.68
2022-11-01T20:55:39.378Z,69.56
2022-11-01T21:45:35.539Z,69.24
2022-11-01T21:48:19.639Z,70.97
2022-11-01T21:58:31.886Z,68.75
2022-11-01T22:01:00.416Z,68.09
2022-11-01T22:03:26.963Z,67.71
2022-11-01T22:05:53.517Z,67.68
2022-11-01T22:08:20.055Z,67.55
2022-11-01T22:10:46.646Z,67.19
2022-11-01T22:13:13.739Z,67.04
2022-11-01T22:15:40.426Z,67.40
2022-11-01T22:18:17.223Z,67.77
2022-11-01T22:20:45.432Z,68.07
2022-11-01T22:23:11.968Z,67.48
2022-11-01T22:36:40.534Z,66.94
2022-11-01T22:39:25.232Z,67.08
2022-11-01T22:41:52.170Z,67.10
2022-11-01T22:44:25.441Z,67.46
2022-11-01T22:47:02.791Z,67.10
2022-11-01T22:53:04.816Z,67.06
2022-11-01T22:55:32.294Z,67.33
2022-11-01T22:58:12.566Z,67.42
2022-11-01T23:00:39.398Z,67.20
2022-11-01T23:03:21.239Z,67.10
2022-11-01T23:05:52.606Z,67.18
2022-11-01T23:08:37.093Z,67.32
2022-11-01T23:11:04.576Z,67.53
2022-11-01T23:13:52.112Z,67.24
2022-11-01T23:16:24.867Z,67.22
2022-11-01T23:18:54.274Z,67.18
2022-11-01T23:21:22.435Z,67.75
2022-11-01T23:23:49.105Z,67.75
2022-11-01T23:26:17.692Z,68.70
2022-11-01T23:28:51.660Z,68.76
2022-11-01T23:31:18.760Z,68.77
2022-11-01T23:33:47.340Z,68.49
2022-11-01T23:36:23.314Z,68.71
2022-11-01T23:38:54.869Z,69.27
2022-11-01T23:41:25.692Z,69.53
2022-11-01T23:43:55.056Z,69.44
2022-11-01T23:46:21.695Z,69.25
2022-11-01T23:48:48.562Z,69.17
2022-11-01T23:51:19.980Z,69.59
2022-11-01T23:54:02.350Z,70.26
2022-11-01T23:56:29.128Z,70.33
2022-11-01T23:59:00.442Z,69.96
